Time;durP1;ratioP1;P1;durP2;ratioP2;P2;SDS_P1;SDS_P2;PMS_P1;PMS_P2;Temp;Humidity;BMP_temperature;BMP_pressure;BME280_temperature;BME280_humidity;BME280_pressure;Samples;Min_cycle;Max_cycle;Signal;HPM_P1;HPM_P2
2022/11/03 00:01:46;;;;;;;;;4.00;4.00;;;;;14.09;100.00;100835.75;5066431;28;44825;-83
2022/11/03 00:04:14;;;;;;;;;3.00;3.00;;;;;13.96;100.00;100813.47;5050109;28;45381;-84
2022/11/03 00:06:41;;;;;;;;;5.00;4.33;;;;;13.90;100.00;100791.19;5050192;28;45413;-83
2022/11/03 00:09:10;;;;;;;;;6.00;5.00;;;;;14.04;100.00;100816.16;5049760;28;44760;-84
2022/11/03 00:11:38;;;;;;;;;6.67;4.33;;;;;14.01;100.00;100813.47;5049219;28;45535;-83
2022/11/03 00:14:05;;;;;;;;;5.33;4.33;;;;;13.93;100.00;100804.53;5049985;28;45164;-83
2022/11/03 00:16:31;;;;;;;;;8.67;6.67;;;;;13.95;100.00;100800.09;5050984;28;45352;-83
2022/11/03 00:18:57;;;;;;;;;4.00;4.00;;;;;13.94;100.00;100803.66;5048002;28;45584;-84
2022/11/03 00:21:23;;;;;;;;;6.33;5.00;;;;;13.80;100.00;100780.47;5065196;28;45437;-84
2022/11/03 00:23:48;;;;;;;;;5.00;5.00;;;;;13.92;100.00;100800.97;5050022;28;47536;-84
2022/11/03 00:26:17;;;;;;;;;6.67;5.00;;;;;13.92;100.00;100800.09;5066858;28;45805;-83
2022/11/03 00:28:45;;;;;;;;;3.33;3.33;;;;;13.81;100.00;100778.69;5069913;28;45445;-83
2022/11/03 00:31:19;;;;;;;;;6.67;5.67;;;;;13.88;100.00;100790.28;5053877;28;44801;-83
2022/11/03 00:33:54;;;;;;;;;3.33;3.00;;;;;13.69;100.00;100766.19;5072653;28;46131;-84
2022/11/03 00:36:25;;;;;;;;;7.00;5.33;;;;;13.86;100.00;100784.94;5070822;28;45436;-84
2022/11/03 00:38:51;;;;;;;;;4.00;4.00;;;;;13.84;100.00;100783.16;5072313;28;45511;-84
2022/11/03 00:41:23;;;;;;;;;7.00;7.00;;;;;13.86;100.00;100789.41;5075016;28;45470;-84
2022/11/03 00:43:49;;;;;;;;;4.33;3.67;;;;;13.85;100.00;100782.25;5074408;28;45832;-85
2022/11/03 00:46:18;;;;;;;;;5.67;4.00;;;;;13.79;100.00;100776.03;5038759;28;45618;-84
2022/11/03 00:48:44;;;;;;;;;5.67;5.67;;;;;13.84;100.00;100775.13;5054926;28;44750;-84
2022/11/03 00:51:21;;;;;;;;;6.00;5.00;;;;;13.85;100.00;100771.56;5074725;28;44776;-84
2022/11/03 00:53:50;;;;;;;;;6.67;5.00;;;;;13.71;100.00;100743.03;5054448;28;46968;-84
2022/11/03 00:56:30;;;;;;;;;6.33;4.33;;;;;13.87;100.00;100764.44;5074482;28;45445;-84
2022/11/03 00:58:58;;;;;;;;;4.33;4.33;;;;;13.55;100.00;100710.06;5054389;28;44902;-83
2022/11/03 01:01:33;;;;;;;;;6.00;3.00;;;;;13.84;100.00;100759.97;5072297;28;44820;-84
2022/11/03 01:06:49;;;;;;;;;6.33;4.33;;;;;13.76;100.00;100746.59;5066890;28;45480;-83
2022/11/03 01:09:22;;;;;;;;;6.33;5.00;;;;;13.73;100.00;100735.00;5053050;28;45358;-84
2022/11/03 01:12:43;;;;;;;;;5.33;5.00;;;;;13.67;100.00;100741.22;5071686;28;45345;-83
2022/11/03 01:15:09;;;;;;;;;5.33;5.33;;;;;13.59;100.00;100732.31;5070343;28;45431;-83
2022/11/03 01:17:35;;;;;;;;;6.00;5.00;;;;;13.58;100.00;100736.78;5052165;28;45515;-83
2022/11/03 01:20:01;;;;;;;;;4.00;4.00;;;;;13.55;100.00;100728.78;5053497;28;45481;-83
2022/11/03 01:22:29;;;;;;;;;7.33;5.00;;;;;13.55;100.00;100714.50;5053133;28;45449;-83
2022/11/03 01:25:10;;;;;;;;;4.67;4.67;;;;;13.55;100.00;100709.16;5053160;28;47128;-83
2022/11/03 01:27:42;;;;;;;;;3.67;3.67;;;;;13.57;100.00;100710.03;5070290;28;45411;-83
2022/11/03 01:30:08;;;;;;;;;4.33;4.33;;;;;13.63;100.00;100707.38;5041862;28;45700;-83
2022/11/03 01:32:33;;;;;;;;;3.00;3.00;;;;;13.65;100.00;100704.72;5053198;28;45489;-83
2022/11/03 01:35:02;;;;;;;;;5.33;4.33;;;;;13.52;100.00;100669.09;5034867;28;45351;-84
2022/11/03 01:37:28;;;;;;;;;5.33;5.00;;;;;13.61;100.00;100677.09;5035340;28;45415;-83
2022/11/03 01:39:54;;;;;;;;;5.00;5.00;;;;;13.69;100.00;100686.00;5052964;28;45314;-84
2022/11/03 01:42:20;;;;;;;;;4.67;4.00;;;;;13.68;100.00;100675.34;5035409;28;45528;-83
2022/11/03 01:44:47;;;;;;;;;4.00;4.00;;;;;13.64;100.00;100674.44;5034706;28;46979;-84
2022/11/03 01:47:28;;;;;;;;;6.33;4.00;;;;;13.61;100.00;100669.06;5031484;28;46067;-84
2022/11/03 01:50:01;;;;;;;;;5.00;4.00;;;;;13.62;100.00;100670.88;5048471;28;45346;-84
2022/11/03 01:52:35;;;;;;;;;5.00;5.00;;;;;13.61;100.00;100666.41;5050758;28;45309;-84
2022/11/03 01:55:12;;;;;;;;;4.67;4.00;;;;;13.52;100.00;100650.38;5049213;28;45141;-84
2022/11/03 01:57:58;;;;;;;;;5.33;4.33;;;;;13.47;100.00;100642.38;5031490;28;45387;-84
2022/11/03 02:00:24;;;;;;;;;8.67;5.00;;;;;13.49;100.00;100647.69;5049672;28;45463;-84
2022/11/03 02:02:53;;;;;;;;;6.00;5.00;;;;;13.41;100.00;100642.34;5052205;28;45275;-84
2022/11/03 02:05:25;;;;;;;;;8.67;8.67;;;;;13.32;100.00;100632.56;5033319;28;47884;-84
2022/11/03 02:07:56;;;;;;;;;7.00;5.00;;;;;13.31;100.00;100624.53;5037020;28;45340;-84
2022/11/03 02:10:24;;;;;;;;;9.00;7.00;;;;;13.30;100.00;100638.78;5036025;28;45438;-85
2022/11/03 02:12:49;;;;;;;;;7.00;5.00;;;;;13.28;100.00;100633.41;5035833;28;45344;-84
2022/11/03 02:15:17;;;;;;;;;6.67;6.67;;;;;13.26;100.00;100619.16;5053485;28;45016;-86
2022/11/03 02:17:46;;;;;;;;;9.00;5.00;;;;;13.23;100.00;100613.84;5033832;28;46240;-84
2022/11/03 02:20:25;;;;;;;;;9.00;8.33;;;;;13.26;100.00;100616.50;5033859;28;45311;-84
2022/11/03 02:23:25;;;;;;;;;4.00;4.00;;;;;13.24;100.00;100612.91;5050172;28;45498;-84
2022/11/03 02:26:00;;;;;;;;;6.00;5.00;;;;;13.24;100.00;100614.72;5034363;28;45815;-84
2022/11/03 02:28:32;;;;;;;;;5.67;5.00;;;;;13.19;100.00;100604.03;5034284;28;45837;-83
2022/11/03 02:37:48;;;;;;;;;6.33;5.00;;;;;13.19;100.00;100582.66;5052611;28;45392;-84
2022/11/03 02:40:33;;;;;;;;;8.33;8.33;;;;;13.11;100.00;100563.06;5035091;28;44850;-84
2022/11/03 02:43:06;;;;;;;;;3.67;3.67;;;;;13.12;100.00;100573.75;5035711;28;44858;-84
2022/11/03 02:45:32;;;;;;;;;6.00;4.33;;;;;13.17;100.00;100576.44;5036075;28;45715;-84
2022/11/03 02:48:00;;;;;;;;;8.33;6.00;;;;;13.07;100.00;100567.53;5036977;28;47172;-84
2022/11/03 02:50:28;;;;;;;;;6.33;5.00;;;;;13.18;100.00;100570.19;5037100;28;45890;-83
2022/11/03 02:53:03;;;;;;;;;6.67;6.00;;;;;13.17;100.00;100560.41;5037172;28;45675;-84
2022/11/03 02:55:47;;;;;;;;;7.00;7.00;;;;;13.11;100.00;100539.94;5037088;28;45407;-84
2022/11/03 02:58:34;;;;;;;;;8.33;6.00;;;;;13.16;100.00;100545.28;5036293;28;46775;-83
2022/11/03 03:01:18;;;;;;;;;7.00;4.00;;;;;13.15;100.00;100539.06;5035746;28;44848;-84
2022/11/03 03:03:49;;;;;;;;;8.33;7.33;;;;;13.13;100.00;100531.94;5033404;28;45431;-82
2022/11/03 03:06:38;;;;;;;;;7.00;5.67;;;;;12.98;100.00;100493.63;5053049;28;45349;-85
2022/11/03 03:09:10;;;;;;;;;6.67;6.33;;;;;13.11;100.00;100505.22;5033647;28;46532;-83
2022/11/03 03:11:41;;;;;;;;;11.00;7.00;;;;;13.17;100.00;100497.22;5051568;28;44784;-84
2022/11/03 03:14:28;;;;;;;;;6.00;6.00;;;;;13.15;100.00;100487.44;5052751;28;45272;-84
2022/11/03 03:17:06;;;;;;;;;6.00;4.00;;;;;13.15;100.00;100476.75;5051450;28;45336;-83
2022/11/03 03:19:53;;;;;;;;;10.67;5.33;;;;;13.14;100.00;100477.63;5054252;28;45435;-83
2022/11/03 03:22:47;;;;;;;;;7.67;6.33;;;;;13.12;100.00;100468.72;5036828;28;45463;-84
2022/11/03 03:32:07;;;;;;;;;7.33;5.00;;;;;13.05;100.00;100450.91;5009171;28;45405;-84
2022/11/03 03:34:42;;;;;;;;;5.00;5.00;;;;;13.10;100.00;100443.81;5010494;28;45675;-84
2022/11/03 03:37:12;;;;;;;;;4.33;3.67;;;;;13.08;100.00;100440.25;4993726;28;45368;-84
2022/11/03 03:39:49;;;;;;;;;5.33;5.33;;;;;13.02;100.00;100431.34;5009884;28;45443;-84
2022/11/03 03:42:16;;;;;;;;;4.00;3.67;;;;;13.02;100.00;100446.47;4992975;28;45214;-84
2022/11/03 03:44:44;;;;;;;;;7.33;6.00;;;;;13.02;100.00;100449.16;4993276;28;44767;-84
2022/11/03 03:47:17;;;;;;;;;8.00;5.67;;;;;13.07;100.00;100449.13;4992354;28;45347;-84
2022/11/03 03:49:42;;;;;;;;;8.33;7.00;;;;;13.07;100.00;100447.38;4993140;28;45330;-84
2022/11/03 03:52:11;;;;;;;;;4.00;4.00;;;;;13.07;100.00;100443.81;5008486;28;45392;-84
2022/11/03 03:54:36;;;;;;;;;6.33;6.00;;;;;13.08;100.00;100450.94;4992261;28;45420;-85
2022/11/03 03:57:04;;;;;;;;;4.67;3.00;;;;;13.11;100.00;100443.81;4993438;28;45460;-83
2022/11/03 03:59:30;;;;;;;;;5.00;4.00;;;;;13.04;100.00;100441.16;4991983;28;45464;-83
2022/11/03 04:01:56;;;;;;;;;3.33;3.33;;;;;13.10;100.00;100433.13;5004954;28;47373;-83
2022/11/03 04:07:57;;;;;;;;;4.67;4.67;;;;;13.11;100.00;100414.44;5051562;28;45354;-83
2022/11/03 04:10:24;;;;;;;;;5.00;5.00;;;;;13.10;100.00;100417.13;5052863;28;45378;-84
2022/11/03 04:23:59;;;;;;;;;8.33;6.00;;;;;13.12;100.00;100400.19;5052682;28;45785;-84
2022/11/03 04:26:26;;;;;;;;;6.00;6.00;;;;;13.14;100.00;100393.06;5046020;28;45526;-83
2022/11/03 04:28:59;;;;;;;;;3.33;3.00;;;;;13.13;100.00;100391.31;5029929;28;44873;-84
2022/11/03 04:31:27;;;;;;;;;4.67;4.00;;;;;13.15;100.00;100393.97;5020646;28;45383;-84
2022/11/03 04:33:53;;;;;;;;;8.67;5.33;;;;;13.11;100.00;100382.41;5013219;28;45483;-84
2022/11/03 04:36:25;;;;;;;;;6.00;6.00;;;;;13.07;100.00;100369.03;5012986;28;45351;-84
2022/11/03 04:38:52;;;;;;;;;5.00;5.00;;;;;13.10;100.00;100380.63;5030640;28;45507;-83
2022/11/03 04:41:38;;;;;;;;;5.00;3.67;;;;;13.08;100.00;100378.84;5015952;28;45452;-84
2022/11/03 04:44:09;;;;;;;;;8.33;6.00;;;;;12.98;100.00;100362.84;5014866;28;47426;-84
2022/11/03 04:46:36;;;;;;;;;4.00;4.00;;;;;13.07;100.00;100366.38;5033614;28;45435;-85
2022/11/03 04:49:09;;;;;;;;;5.00;4.33;;;;;13.05;100.00;100354.81;4999108;28;45600;-85
2022/11/03 04:51:35;;;;;;;;;9.33;8.00;;;;;13.02;100.00;100361.94;5033377;28;45459;-85
2022/11/03 04:54:12;;;;;;;;;4.67;4.67;;;;;12.99;100.00;100351.28;5033756;28;44909;-82
2022/11/03 04:56:39;;;;;;;;;3.00;2.00;;;;;12.95;100.00;100337.97;5013213;28;45905;-84
2022/11/03 04:59:11;;;;;;;;;5.00;4.67;;;;;13.02;100.00;100340.59;5011942;28;45405;-83
2022/11/03 05:01:37;;;;;;;;;4.67;4.33;;;;;13.01;100.00;100340.59;5009702;28;45128;-83
2022/11/03 05:04:10;;;;;;;;;7.00;7.00;;;;;12.98;100.00;100329.91;5012546;28;45512;-83
2022/11/03 05:06:37;;;;;;;;;6.00;5.00;;;;;12.99;100.00;100321.91;5010251;28;45656;-84
2022/11/03 05:09:22;;;;;;;;;6.33;6.33;;;;;12.95;100.00;100309.47;5029839;28;45461;-83
2022/11/03 05:12:44;;;;;;;;;5.00;5.00;;;;;12.97;100.00;100313.03;5011836;28;45359;-84
2022/11/03 05:15:30;;;;;;;;;7.00;5.33;;;;;12.97;100.00;100313.03;5011330;28;46694;-83
2022/11/03 11:35:42;;;;;;;;;5.00;5.00;;;;;15.48;100.00;99692.13;6292348;22;45474;-86
2022/11/03 11:38:45;;;;;;;;;3.00;3.00;;;;;15.54;100.00;99693.78;6291296;22;45479;-87
2022/11/03 11:41:15;;;;;;;;;6.33;5.00;;;;;15.39;100.00;99644.09;6265036;22;45275;-87
2022/11/03 11:43:46;;;;;;;;;7.00;7.00;;;;;15.50;100.00;99655.44;6291040;22;46668;-87
2022/11/03 11:46:24;;;;;;;;;3.67;3.67;;;;;15.69;100.00;99669.28;6291871;22;45325;-87
2022/11/03 11:48:55;;;;;;;;;7.00;6.00;;;;;15.70;100.00;99665.69;6290504;22;45418;-87
2022/11/03 11:51:24;;;;;;;;;5.33;5.00;;;;;15.56;100.00;99644.56;6262616;22;44876;-87
2022/11/03 11:53:59;;;;;;;;;5.67;4.00;;;;;15.72;100.00;99655.84;6295975;22;47685;-85
2022/11/03 11:56:25;;;;;;;;;5.67;5.67;;;;;15.51;100.00;99616.13;6290958;22;45412;-87
2022/11/03 11:58:54;;;;;;;;;4.00;4.00;;;;;15.75;100.00;99637.03;6290721;22;45348;-87
2022/11/03 12:01:42;;;;;;;;;5.00;4.00;;;;;15.94;100.00;99644.59;6291857;22;45357;-88
2022/11/03 12:05:02;;;;;;;;;5.00;4.00;;;;;15.84;100.00;99601.03;6276254;22;46604;-88
2022/11/03 12:07:46;;;;;;;;;7.00;5.00;;;;;15.74;100.00;99592.34;6297866;22;45339;-87
2022/11/03 12:10:34;;;;;;;;;5.00;3.00;;;;;15.71;100.00;99592.38;6273539;22;45344;-88
2022/11/03 12:13:25;;;;;;;;;4.67;4.67;;;;;15.97;100.00;99641.81;6371967;22;44891;-87
2022/11/03 12:15:56;;;;;;;;;6.00;5.00;;;;;15.79;100.00;99586.88;6360143;22;46703;-87
2022/11/03 12:18:46;;;;;;;;;7.00;7.00;;;;;15.82;100.00;99584.13;6389196;22;45259;-88
2022/11/03 12:21:50;;;;;;;;;11.33;7.33;;;;;16.06;100.00;99616.56;6359596;22;44851;-88
2022/11/03 12:24:37;;;;;;;;;7.67;7.67;;;;;16.06;100.00;99612.09;6388196;22;45401;-88
2022/11/03 12:27:17;;;;;;;;;6.33;6.00;;;;;15.95;100.00;99606.13;6336000;22;47156;-88
2022/11/03 12:30:07;;;;;;;;;6.67;6.00;;;;;15.75;100.00;99582.50;6390941;22;44949;-87
2022/11/03 12:32:44;;;;;;;;;5.00;5.00;;;;;15.90;100.00;99598.22;6353198;22;45311;-87
2022/11/03 12:42:00;;;;;;;;;5.67;5.67;;;;;15.76;100.00;99579.78;6358023;22;45260;-87
2022/11/03 12:44:26;;;;;;;;;5.00;5.00;;;;;15.56;100.00;99536.50;6357011;22;44671;-87
2022/11/03 12:46:52;;;;;;;;;6.67;6.33;;;;;15.76;100.00;99571.75;6352924;22;45580;-86
2022/11/03 12:49:35;;;;;;;;;3.67;3.67;;;;;15.74;100.00;99557.50;6354210;22;45020;-88
2022/11/03 12:52:36;;;;;;;;;5.00;4.00;;;;;15.65;100.00;99538.94;6349356;22;45281;-87
2022/11/03 12:55:36;;;;;;;;;5.00;5.00;;;;;15.57;100.00;99559.69;6340322;22;45545;-88
2022/11/03 12:58:21;;;;;;;;;7.00;7.00;;;;;15.48;100.00;99550.09;6230456;22;45357;-88
2022/11/03 13:00:51;;;;;;;;;6.00;4.33;;;;;15.20;100.00;99499.88;6255672;22;45423;-88
2022/11/03 13:03:20;;;;;;;;;4.00;4.00;;;;;15.18;100.00;99498.16;6227516;22;45401;-86
2022/11/03 13:05:45;;;;;;;;;7.00;5.00;;;;;15.17;100.00;99509.81;6227251;22;44725;-88
2022/11/03 13:08:48;;;;;;;;;;;;;;;;;;;;;
2022/11/03 13:17:08;;;;;;;;;3.00;3.00;;;;;14.84;100.00;99504.31;6229043;22;45745;-87
2022/11/03 13:22:37;;;;;;;;;3.00;2.00;;;;;14.68;100.00;99498.44;6323630;22;45065;-87
2022/11/03 13:25:31;;;;;;;;;2.00;2.00;;;;;14.70;100.00;99512.66;6301148;22;45448;-88
2022/11/03 13:28:14;;;;;;;;;2.00;2.00;;;;;14.50;100.00;99501.50;6299353;22;44697;-90
2022/11/03 13:38:37;;;;;;;;;2.00;2.00;;;;;14.04;100.00;99479.28;6355406;22;45713;-87
2022/11/03 13:41:16;;;;;;;;;4.00;3.67;;;;;14.09;100.00;99492.56;6328387;22;45428;-88
2022/11/03 13:43:46;;;;;;;;;0.67;0.67;;;;;13.99;100.00;99487.38;6328896;22;45336;-87
2022/11/03 13:46:14;;;;;;;;;4.00;3.00;;;;;14.11;100.00;99513.00;6354481;22;45414;-88
2022/11/03 13:48:40;;;;;;;;;2.00;2.00;;;;;14.11;100.00;99515.66;6301814;22;45465;-87
2022/11/03 13:54:04;;;;;;;;;2.00;2.00;;;;;14.06;100.00;99492.59;6294398;22;45588;-87
2022/11/03 13:56:42;;;;;;;;;4.00;2.33;;;;;13.97;100.00;99483.00;6294927;22;45477;-87
2022/11/03 13:59:07;;;;;;;;;3.50;3.00;;;;;13.99;100.00;99502.56;6270369;22;45724;-88
2022/11/03 14:01:44;;;;;;;;;4.00;3.00;;;;;13.71;100.00;99449.63;6266492;22;45391;-88
2022/11/03 14:04:24;;;;;;;;;3.00;3.00;;;;;13.95;100.00;99479.47;6290650;22;46883;-87
2022/11/03 14:07:28;;;;;;;;;1.00;1.00;;;;;13.79;100.00;99455.75;6267798;22;45178;-88
2022/11/03 14:09:56;;;;;;;;;2.00;2.00;;;;;13.65;100.00;99444.41;6167939;23;45227;-88
2022/11/03 14:12:50;;;;;;;;;2.00;2.00;;;;;13.93;100.00;99465.25;6168877;23;45549;-88
2022/11/03 14:15:56;;;;;;;;;3.00;2.00;;;;;13.60;100.00;99399.09;6169509;23;45350;-87
2022/11/03 14:21:59;;;;;;;;;5.00;4.33;;;;;13.88;100.00;99443.09;6168104;23;45272;-88
2022/11/03 14:24:34;;;;;;;;;6.33;6.00;;;;;13.61;100.00;99424.00;6137956;23;45554;-88
2022/11/03 14:27:35;;;;;;;;;2.67;2.67;;;;;13.75;100.00;99467.38;6164195;23;45351;-88
2022/11/03 14:30:03;;;;;;;;;2.00;2.00;;;;;13.78;100.00;99477.13;6051176;23;44819;-85
2022/11/03 14:32:54;;;;;;;;;4.33;4.00;;;;;13.93;100.00;99505.34;6051430;23;45467;-87
2022/11/03 14:35:26;;;;;;;;;4.33;2.33;;;;;13.92;100.00;99501.81;6074195;23;44817;-87
2022/11/03 14:38:01;;;;;;;;;9.33;9.00;;;;;13.73;100.00;99461.16;6049499;23;46676;-86
2022/11/03 14:43:27;;;;;;;;;2.00;2.00;;;;;14.04;100.00;99486.41;6075082;23;45294;-88
2022/11/03 14:46:11;;;;;;;;;;;;;;;;;;;;;
2022/11/03 14:48:53;;;;;;;;;3.00;2.00;;;;;14.10;100.00;99484.50;6131472;23;73925;-87
2022/11/03 14:51:22;;;;;;;;;2.00;2.00;;;;;14.02;100.00;99475.78;6133733;23;45397;-87
2022/11/03 14:54:13;;;;;;;;;;;;;;;;;;;;;
2022/11/03 14:56:42;;;;;;;;;3.00;3.00;;;;;13.90;100.00;99454.63;6256290;22;65686;-88
2022/11/03 14:59:15;;;;;;;;;3.00;1.67;;;;;14.06;100.00;99485.50;6262100;22;46207;-87
2022/11/03 15:02:02;;;;;;;;;2.00;2.00;;;;;14.24;100.00;99504.72;6261391;22;45354;-88
2022/11/03 15:05:42;;;;;;;;;1.00;1.00;;;;;14.17;100.00;99483.47;6261871;22;44737;-86
2022/11/03 15:08:24;;;;;;;;;1.33;1.33;;;;;14.24;100.00;99499.38;6260628;22;45481;-87
2022/11/03 15:11:11;;;;;;;;;;;;;;;;;;;;;
2022/11/03 15:13:37;;;;;;;;;2.00;2.00;;;;;14.15;100.00;99484.41;6237190;22;72157;-86
2022/11/03 15:16:10;;;;;;;;;2.67;2.00;;;;;14.26;100.00;99510.91;6234598;22;45259;-88
2022/11/03 15:18:58;;;;;;;;;4.00;2.00;;;;;14.25;100.00;99510.03;6238098;22;45536;-88
2022/11/03 15:21:30;;;;;;;;;3.67;2.00;;;;;14.00;100.00;99474.94;6264556;22;45260;-88
2022/11/03 15:24:08;;;;;;;;;13.33;13.33;;;;;14.08;100.00;99485.44;6263062;22;45349;-87
2022/11/03 15:26:35;;;;;;;;;2.50;2.50;;;;;13.97;100.00;99456.25;6235853;22;44769;-87
2022/11/03 15:29:00;;;;;;;;;1.00;1.00;;;;;14.24;100.00;99499.38;6234027;22;44772;-87
2022/11/03 15:31:26;;;;;;;;;1.00;1.00;;;;;14.25;100.00;99514.53;6234145;22;45497;-88
2022/11/03 15:33:53;;;;;;;;;1.33;1.33;;;;;14.18;100.00;99511.97;6238417;22;45570;-88
2022/11/03 15:36:22;;;;;;;;;3.67;2.00;;;;;14.27;100.00;99510.91;6235555;22;45213;-89
2022/11/03 15:39:02;;;;;;;;;4.33;1.33;;;;;14.26;100.00;99500.22;6234584;22;45314;-88
2022/11/03 15:41:28;;;;;;;;;2.67;2.67;;;;;14.21;100.00;99493.19;6235932;22;46555;-88
2022/11/03 15:43:58;;;;;;;;;2.00;2.00;;;;;14.07;100.00;99470.31;6260357;22;44838;-88
2022/11/03 15:46:26;;;;;;;;;2.00;2.00;;;;;13.94;100.00;99467.03;6261158;22;45259;-87
2022/11/03 15:49:01;;;;;;;;;1.00;1.00;;;;;14.17;100.00;99512.88;6232930;22;45406;-89
2022/11/03 15:51:42;;;;;;;;;2.00;2.00;;;;;14.20;100.00;99512.81;6231038;22;45457;-86
2022/11/03 15:54:14;;;;;;;;;1.00;1.00;;;;;14.21;100.00;99527.94;6289354;22;45495;-86
2022/11/03 15:56:49;;;;;;;;;2.00;2.00;;;;;14.15;100.00;99506.66;6292364;22;44759;-87
2022/11/03 15:59:24;;;;;;;;;3.00;3.00;;;;;14.34;100.00;99538.38;6291400;22;45759;-87
2022/11/03 16:01:55;;;;;;;;;2.00;1.33;;;;;14.19;100.00;99511.03;6312808;22;47620;-88
2022/11/03 16:07:19;;;;;;;;;1.00;1.00;;;;;14.36;100.00;99520.50;6293292;22;44873;-88
2022/11/03 16:09:51;;;;;;;;;1.75;1.75;;;;;14.19;100.00;99481.63;6293606;22;45178;-88
2022/11/03 16:12:16;;;;;;;;;1.00;1.00;;;;;14.23;100.00;99489.59;6286298;22;45215;-86
2022/11/03 16:14:48;;;;;;;;;2.25;1.75;;;;;14.19;100.00;99489.66;6286520;22;45575;-87
2022/11/03 16:17:16;;;;;;;;;2.00;2.00;;;;;14.15;100.00;99504.00;6285256;22;45337;-87
2022/11/03 16:19:45;;;;;;;;;1.33;1.00;;;;;14.24;100.00;99523.44;6312919;22;45382;-88
2022/11/03 16:22:11;;;;;;;;;3.00;1.33;;;;;14.17;100.00;99536.94;6285571;22;46721;-88
2022/11/03 16:25:14;;;;;;;;;2.00;2.00;;;;;14.00;100.00;99526.59;6287607;22;45383;-87
2022/11/03 16:27:52;;;;;;;;;0.75;0.75;;;;;14.03;100.00;99541.69;6207511;22;45326;-87
2022/11/03 16:30:18;;;;;;;;;1.67;1.67;;;;;13.76;100.00;99513.69;6186702;22;45344;-87
2022/11/03 16:32:51;;;;;;;;;3.67;3.00;;;;;13.65;100.00;99523.69;6231715;22;45537;-88
2022/11/03 16:35:28;;;;;;;;;1.00;1.00;;;;;13.46;100.00;99507.13;6205058;22;44690;-87
2022/11/03 16:40:53;;;;;;;;;2.00;2.00;;;;;13.48;100.00;99543.56;6227296;22;44869;-87
2022/11/03 16:43:57;;;;;;;;;1.00;1.00;;;;;13.51;100.00;99574.69;6203327;22;46812;-86
2022/11/03 16:47:10;;;;;;;;;1.00;1.00;;;;;13.22;100.00;99546.63;6230741;22;45537;-87
2022/11/03 16:49:43;;;;;;;;;1.00;0.75;;;;;13.38;100.00;99582.03;6212793;22;45362;-87
2022/11/03 16:52:12;;;;;;;;;2.00;2.00;;;;;13.26;100.00;99575.03;6204437;22;45336;-86
2022/11/03 16:54:51;;;;;;;;;1.50;1.50;;;;;13.29;100.00;99607.09;6177304;23;45353;-87
2022/11/03 16:57:23;;;;;;;;;1.00;1.00;;;;;13.18;100.00;99598.31;6197240;23;45385;-87
2022/11/03 17:00:16;;;;;;;;;0.00;0.00;;;;;13.13;100.00;99594.84;6172933;23;44792;-88
2022/11/03 17:02:54;;;;;;;;;1.33;1.33;;;;;13.16;100.00;99601.00;6196672;23;44852;-87
2022/11/03 17:05:24;;;;;;;;;1.00;1.00;;;;;13.25;100.00;99626.69;6224133;22;45655;-87
2022/11/03 17:07:50;;;;;;;;;2.33;1.00;;;;;13.05;100.00;99602.97;6260494;22;45134;-86
2022/11/03 17:10:41;;;;;;;;;2.00;1.67;;;;;13.17;100.00;99634.81;6234304;22;45326;-86
2022/11/03 17:13:24;;;;;;;;;2.50;1.00;;;;;12.93;100.00;99606.69;6260468;22;45470;-87
2022/11/03 17:15:50;;;;;;;;;1.00;1.00;;;;;12.90;100.00;99620.03;6232937;22;45884;-87
2022/11/03 17:18:57;;;;;;;;;1.00;1.00;;;;;12.98;100.00;99654.66;6233957;22;45422;-87
2022/11/03 17:21:24;;;;;;;;;0.25;0.25;;;;;12.95;100.00;99665.38;6233954;22;45180;-87
2022/11/03 17:23:58;;;;;;;;;3.33;3.33;;;;;12.81;100.00;99657.53;6234792;22;45175;-86
2022/11/03 17:26:57;;;;;;;;;5.33;3.00;;;;;12.86;100.00;99682.38;6234279;22;46285;-86
2022/11/03 17:29:42;;;;;;;;;2.00;2.00;;;;;12.85;100.00;99685.06;6195375;23;45509;-87
2022/11/03 17:32:42;;;;;;;;;2.00;2.00;;;;;12.81;100.00;99684.22;6170742;23;45423;-87
2022/11/03 17:38:25;;;;;;;;;2.00;2.00;;;;;12.59;100.00;99670.25;6321321;22;45396;-87
2022/11/03 17:40:58;;;;;;;;;4.33;3.67;;;;;12.75;100.00;99702.97;6326193;22;45210;-86
2022/11/03 17:43:26;;;;;;;;;3.00;3.00;;;;;12.56;100.00;99679.19;6329521;22;44808;-87
2022/11/03 17:45:56;;;;;;;;;4.33;2.33;;;;;12.68;100.00;99720.81;6327316;22;45334;-87
2022/11/03 17:48:22;;;;;;;;;3.33;3.33;;;;;12.66;100.00;99733.28;6326804;22;46720;-86
2022/11/03 17:50:52;;;;;;;;;3.00;3.00;;;;;12.53;100.00;99702.31;6325558;22;45356;-86
2022/11/03 17:53:31;;;;;;;;;3.00;3.00;;;;;12.65;100.00;99738.66;6327892;22;45080;-86
2022/11/03 17:56:33;;;;;;;;;2.00;2.00;;;;;12.68;100.00;99738.59;6330645;22;44848;-87
2022/11/03 17:59:02;;;;;;;;;3.00;3.00;;;;;12.65;100.00;99741.31;6330603;22;47475;-87
2022/11/03 18:01:28;;;;;;;;;1.67;1.67;;;;;12.51;100.00;99723.66;6331339;22;45318;-87
2022/11/03 18:04:01;;;;;;;;;2.00;2.00;;;;;12.59;100.00;99745.81;6325642;22;44737;-87
2022/11/03 18:06:33;;;;;;;;;3.00;3.00;;;;;12.44;100.00;99724.63;6324728;22;45413;-86
2022/11/03 18:09:02;;;;;;;;;3.00;3.00;;;;;12.57;100.00;99749.41;6326450;22;45428;-86
2022/11/03 18:14:14;;;;;;;;;4.67;4.00;;;;;12.48;100.00;99752.13;6353966;22;45303;-87
2022/11/03 18:16:50;;;;;;;;;2.00;2.00;;;;;12.45;100.00;99749.53;6325316;22;45281;-86
2022/11/03 18:19:25;;;;;;;;;2.00;2.00;;;;;12.42;100.00;99747.75;6325975;22;46648;-87
2022/11/03 18:22:01;;;;;;;;;4.67;2.67;;;;;12.25;100.00;99731.03;6302848;22;45314;-87
2022/11/03 18:24:27;;;;;;;;;3.00;2.00;;;;;12.28;100.00;99744.31;6351444;22;45281;-86
2022/11/03 18:26:53;;;;;;;;;2.00;2.00;;;;;12.30;100.00;99764.75;6351776;22;45435;-87
2022/11/03 18:29:44;;;;;;;;;2.33;2.33;;;;;12.32;100.00;99759.38;6348583;22;46493;-86
2022/11/03 18:32:19;;;;;;;;;2.67;2.67;;;;;12.18;100.00;99755.09;6351159;22;45213;-86
2022/11/03 18:34:46;;;;;;;;;3.00;3.00;;;;;12.20;100.00;99765.75;6323117;22;45273;-86
2022/11/03 18:37:15;;;;;;;;;4.00;4.00;;;;;12.20;100.00;99769.28;6325032;22;44728;-86
2022/11/03 18:39:40;;;;;;;;;4.33;3.00;;;;;12.25;100.00;99784.34;6316467;22;45491;-86
2022/11/03 18:42:15;;;;;;;;;4.00;3.33;;;;;12.24;100.00;99779.91;6316661;22;45466;-86
2022/11/03 18:44:42;;;;;;;;;6.00;4.00;;;;;12.18;100.00;99773.75;6293402;22;45818;-86
2022/11/03 18:47:09;;;;;;;;;3.00;3.00;;;;;12.18;100.00;99789.75;6318985;22;45340;-86
2022/11/03 18:49:35;;;;;;;;;2.33;2.33;;;;;12.11;100.00;99780.00;6318536;22;45415;-86
2022/11/03 18:52:14;;;;;;;;;2.00;2.00;;;;;12.12;100.00;99784.47;6320509;22;45329;-87
2022/11/03 18:54:53;;;;;;;;;2.00;2.00;;;;;12.06;100.00;99781.84;6318850;22;45426;-87
2022/11/03 18:57:25;;;;;;;;;4.50;3.00;;;;;12.10;100.00;99791.56;6319090;22;44731;-87
2022/11/03 18:59:51;;;;;;;;;3.33;3.33;;;;;12.05;100.00;99792.50;6318376;22;46767;-87
2022/11/03 19:02:22;;;;;;;;;3.33;3.00;;;;;12.01;100.00;99778.31;6319967;22;45426;-87
2022/11/03 19:04:48;;;;;;;;;5.33;4.00;;;;;11.96;100.00;99777.47;6319732;22;45212;-86
2022/11/03 19:07:24;;;;;;;;;1.33;1.33;;;;;11.97;100.00;99787.22;6321160;22;45452;-86
2022/11/03 19:09:51;;;;;;;;;4.33;3.00;;;;;11.89;100.00;99773.94;6319840;22;45291;-86
2022/11/03 19:12:27;;;;;;;;;6.00;6.00;;;;;11.95;100.00;99794.34;6318748;22;45431;-86
2022/11/03 19:14:56;;;;;;;;;4.00;3.00;;;;;11.86;100.00;99775.72;6320459;22;45434;-86
2022/11/03 19:17:24;;;;;;;;;5.00;3.50;;;;;11.98;100.00;99799.66;6320798;22;45272;-86
2022/11/03 19:19:53;;;;;;;;;2.67;2.67;;;;;11.88;100.00;99785.47;6318896;22;45535;-87
2022/11/03 19:22:22;;;;;;;;;3.33;2.33;;;;;11.81;100.00;99763.34;6320327;22;45267;-87
2022/11/03 19:24:47;;;;;;;;;3.00;3.00;;;;;11.90;100.00;99782.84;6319189;22;45315;-85
2022/11/03 19:27:18;;;;;;;;;3.33;3.33;;;;;11.98;100.00;99797.88;6319688;22;44807;-87
2022/11/03 19:29:56;;;;;;;;;3.00;3.00;;;;;11.98;100.00;99795.22;6319388;22;47445;-86
2022/11/03 19:32:27;;;;;;;;;6.67;5.00;;;;;11.95;100.00;99802.34;6318249;22;45328;-87
2022/11/03 19:35:00;;;;;;;;;4.00;4.00;;;;;11.91;100.00;99804.13;6318654;22;45410;-87
2022/11/03 19:37:30;;;;;;;;;4.00;4.00;;;;;11.61;100.00;99755.47;6318987;22;45378;-87